sensor_id;sensor_type;location;lat;lon;timestamp;temperature;humidity
17632;DHT22;8934;51.194;17.150;2022-11-27T00:00:10;5.10;99.90
17632;DHT22;8934;51.194;17.150;2022-11-27T00:02:59;5.10;99.90
17632;DHT22;8934;51.194;17.150;2022-11-27T00:05:51;5.10;99.90
17632;DHT22;8934;51.194;17.150;2022-11-27T00:08:39;5.00;99.90
17632;DHT22;8934;51.194;17.150;2022-11-27T00:11:27;5.00;99.90
17632;DHT22;8934;51.194;17.150;2022-11-27T00:14:15;5.00;99.90
17632;DHT22;8934;51.194;17.150;2022-11-27T00:17:03;5.00;99.90
17632;DHT22;8934;51.194;17.150;2022-11-27T00:19:51;5.00;99.90
17632;DHT22;8934;51.194;17.150;2022-11-27T00:22:38;5.00;99.90
17632;DHT22;8934;51.194;17.150;2022-11-27T00:25:26;5.00;99.90
17632;DHT22;8934;51.194;17.150;2022-11-27T00:28:13;5.00;99.90
17632;DHT22;8934;51.194;17.150;2022-11-27T00:31:03;5.00;99.90
17632;DHT22;8934;51.194;17.150;2022-11-27T00:33:53;5.00;99.90
17632;DHT22;8934;51.194;17.150;2022-11-27T00:36:41;5.00;99.90
17632;DHT22;8934;51.194;17.150;2022-11-27T00:39:33;5.00;99.90
17632;DHT22;8934;51.194;17.150;2022-11-27T00:42:20;5.00;99.90
17632;DHT22;8934;51.194;17.150;2022-11-27T00:45:08;5.00;99.90
17632;DHT22;8934;51.194;17.150;2022-11-27T00:47:55;5.00;99.90
17632;DHT22;8934;51.194;17.150;2022-11-27T00:50:42;5.00;99.90
17632;DHT22;8934;51.194;17.150;2022-11-27T00:53:31;5.00;99.90
17632;DHT22;8934;51.194;17.150;2022-11-27T00:56:20;5.00;99.90
17632;DHT22;8934;51.194;17.150;2022-11-27T00:59:08;5.00;99.90
17632;DHT22;8934;51.194;17.150;2022-11-27T01:01:55;5.00;99.90
17632;DHT22;8934;51.194;17.150;2022-11-27T01:04:44;5.00;99.90
17632;DHT22;8934;51.194;17.150;2022-11-27T01:07:31;5.00;99.90
17632;DHT22;8934;51.194;17.150;2022-11-27T01:10:20;5.00;99.90
17632;DHT22;8934;51.194;17.150;2022-11-27T01:13:07;5.00;99.90
17632;DHT22;8934;51.194;17.150;2022-11-27T01:15:58;5.00;99.90
17632;DHT22;8934;51.194;17.150;2022-11-27T01:18:47;5.00;99.90
17632;DHT22;8934;51.194;17.150;2022-11-27T01:21:34;5.00;99.90
17632;DHT22;8934;51.194;17.150;2022-11-27T01:24:21;5.00;99.90
17632;DHT22;8934;51.194;17.150;2022-11-27T01:27:10;5.00;99.90
17632;DHT22;8934;51.194;17.150;2022-11-27T01:29:57;5.00;99.90
17632;DHT22;8934;51.194;17.150;2022-11-27T01:32:44;5.00;99.90
17632;DHT22;8934;51.194;17.150;2022-11-27T01:35:31;4.90;99.90
17632;DHT22;8934;51.194;17.150;2022-11-27T01:38:19;4.90;99.90
17632;DHT22;8934;51.194;17.150;2022-11-27T01:41:11;4.90;99.90
17632;DHT22;8934;51.194;17.150;2022-11-27T01:44:02;4.90;99.90
17632;DHT22;8934;51.194;17.150;2022-11-27T01:46:51;4.80;99.90
17632;DHT22;8934;51.194;17.150;2022-11-27T01:49:43;4.80;99.90
17632;DHT22;8934;51.194;17.150;2022-11-27T01:52:34;4.80;99.90
17632;DHT22;8934;51.194;17.150;2022-11-27T01:55:27;4.80;99.90
17632;DHT22;8934;51.194;17.150;2022-11-27T01:58:18;4.80;99.90
17632;DHT22;8934;51.194;17.150;2022-11-27T02:01:08;4.80;99.90
17632;DHT22;8934;51.194;17.150;2022-11-27T02:03:58;4.80;99.90
17632;DHT22;8934;51.194;17.150;2022-11-27T02:06:46;4.80;99.90
17632;DHT22;8934;51.194;17.150;2022-11-27T02:09:33;4.70;99.90
17632;DHT22;8934;51.194;17.150;2022-11-27T02:12:23;4.70;99.90
17632;DHT22;8934;51.194;17.150;2022-11-27T02:15:17;4.70;99.90
17632;DHT22;8934;51.194;17.150;2022-11-27T02:18:12;4.80;99.90
17632;DHT22;8934;51.194;17.150;2022-11-27T02:21:05;4.80;99.90
17632;DHT22;8934;51.194;17.150;2022-11-27T02:24:29;4.80;99.90
17632;DHT22;8934;51.194;17.150;2022-11-27T02:27:38;4.80;99.90
17632;DHT22;8934;51.194;17.150;2022-11-27T02:30:33;4.80;99.90
17632;DHT22;8934;51.194;17.150;2022-11-27T02:33:23;4.80;99.90
17632;DHT22;8934;51.194;17.150;2022-11-27T02:36:14;4.80;99.90
17632;DHT22;8934;51.194;17.150;2022-11-27T02:39:06;4.80;99.90
17632;DHT22;8934;51.194;17.150;2022-11-27T02:42:00;4.80;99.90
17632;DHT22;8934;51.194;17.150;2022-11-27T02:44:56;4.80;99.90
17632;DHT22;8934;51.194;17.150;2022-11-27T02:47:46;4.80;99.90
17632;DHT22;8934;51.194;17.150;2022-11-27T02:50:36;4.80;99.90
17632;DHT22;8934;51.194;17.150;2022-11-27T02:53:28;4.80;99.90
17632;DHT22;8934;51.194;17.150;2022-11-27T02:56:20;4.80;99.90
17632;DHT22;8934;51.194;17.150;2022-11-27T02:59:11;4.80;99.90
17632;DHT22;8934;51.194;17.150;2022-11-27T03:02:09;4.80;99.90
17632;DHT22;8934;51.194;17.150;2022-11-27T03:05:00;4.90;99.90
17632;DHT22;8934;51.194;17.150;2022-11-27T03:07:52;4.90;99.90
17632;DHT22;8934;51.194;17.150;2022-11-27T03:10:48;4.90;99.90
17632;DHT22;8934;51.194;17.150;2022-11-27T03:13:38;4.90;99.90
17632;DHT22;8934;51.194;17.150;2022-11-27T03:16:33;4.90;99.90
17632;DHT22;8934;51.194;17.150;2022-11-27T03:19:25;4.90;99.90
17632;DHT22;8934;51.194;17.150;2022-11-27T03:22:15;4.90;99.90
17632;DHT22;8934;51.194;17.150;2022-11-27T03:25:03;4.90;99.90
17632;DHT22;8934;51.194;17.150;2022-11-27T03:27:55;5.00;99.90
17632;DHT22;8934;51.194;17.150;2022-11-27T03:30:42;4.90;99.90
17632;DHT22;8934;51.194;17.150;2022-11-27T03:33:30;5.00;99.90
17632;DHT22;8934;51.194;17.150;2022-11-27T03:36:18;5.00;99.90
17632;DHT22;8934;51.194;17.150;2022-11-27T03:39:07;5.00;99.90
17632;DHT22;8934;51.194;17.150;2022-11-27T03:42:03;5.00;99.90
17632;DHT22;8934;51.194;17.150;2022-11-27T03:44:57;5.00;99.90
17632;DHT22;8934;51.194;17.150;2022-11-27T03:47:52;5.00;99.90
17632;DHT22;8934;51.194;17.150;2022-11-27T03:50:55;5.00;99.90
17632;DHT22;8934;51.194;17.150;2022-11-27T03:53:51;5.00;99.90
17632;DHT22;8934;51.194;17.150;2022-11-27T03:56:46;5.00;99.90
17632;DHT22;8934;51.194;17.150;2022-11-27T03:59:37;5.00;99.90
17632;DHT22;8934;51.194;17.150;2022-11-27T04:02:28;5.00;99.90
17632;DHT22;8934;51.194;17.150;2022-11-27T04:05:17;5.00;99.90
17632;DHT22;8934;51.194;17.150;2022-11-27T04:08:05;5.00;99.90
17632;DHT22;8934;51.194;17.150;2022-11-27T04:10:52;5.00;99.90
17632;DHT22;8934;51.194;17.150;2022-11-27T04:13:41;5.00;99.90
17632;DHT22;8934;51.194;17.150;2022-11-27T04:16:28;4.90;99.90
17632;DHT22;8934;51.194;17.150;2022-11-27T04:19:15;4.90;99.90
17632;DHT22;8934;51.194;17.150;2022-11-27T04:22:02;4.90;99.90
17632;DHT22;8934;51.194;17.150;2022-11-27T04:24:48;4.90;99.90
17632;DHT22;8934;51.194;17.150;2022-11-27T04:27:35;4.90;99.90
17632;DHT22;8934;51.194;17.150;2022-11-27T04:30:24;4.90;99.90
17632;DHT22;8934;51.194;17.150;2022-11-27T04:33:11;4.90;99.90
17632;DHT22;8934;51.194;17.150;2022-11-27T04:35:58;4.90;99.90
17632;DHT22;8934;51.194;17.150;2022-11-27T04:38:45;4.90;99.90
17632;DHT22;8934;51.194;17.150;2022-11-27T04:41:33;4.90;99.90
17632;DHT22;8934;51.194;17.150;2022-11-27T04:44:20;4.90;99.90
17632;DHT22;8934;51.194;17.150;2022-11-27T04:47:09;4.90;99.90
17632;DHT22;8934;51.194;17.150;2022-11-27T04:49:56;4.80;99.90
17632;DHT22;8934;51.194;17.150;2022-11-27T04:52:43;4.80;99.90
17632;DHT22;8934;51.194;17.150;2022-11-27T04:55:30;4.80;99.90
17632;DHT22;8934;51.194;17.150;2022-11-27T04:58:17;4.80;99.90
17632;DHT22;8934;51.194;17.150;2022-11-27T05:01:06;4.80;99.90
17632;DHT22;8934;51.194;17.150;2022-11-27T05:03:54;4.80;99.90
17632;DHT22;8934;51.194;17.150;2022-11-27T05:06:41;4.80;99.90
17632;DHT22;8934;51.194;17.150;2022-11-27T05:09:28;4.80;99.90
17632;DHT22;8934;51.194;17.150;2022-11-27T05:12:16;4.80;99.90
17632;DHT22;8934;51.194;17.150;2022-11-27T05:15:03;4.80;99.90
17632;DHT22;8934;51.194;17.150;2022-11-27T05:17:50;4.80;99.90
17632;DHT22;8934;51.194;17.150;2022-11-27T05:20:39;4.80;99.90
17632;DHT22;8934;51.194;17.150;2022-11-27T05:23:26;4.90;99.90
17632;DHT22;8934;51.194;17.150;2022-11-27T05:26:13;4.90;99.90
17632;DHT22;8934;51.194;17.150;2022-11-27T05:29:01;4.90;99.90
17632;DHT22;8934;51.194;17.150;2022-11-27T05:31:48;4.90;99.90
17632;DHT22;8934;51.194;17.150;2022-11-27T05:34:35;4.90;99.90
17632;DHT22;8934;51.194;17.150;2022-11-27T05:37:24;4.90;99.90
17632;DHT22;8934;51.194;17.150;2022-11-27T05:40:12;4.90;99.90
17632;DHT22;8934;51.194;17.150;2022-11-27T05:42:59;4.90;99.90
17632;DHT22;8934;51.194;17.150;2022-11-27T05:45:46;4.90;99.90
17632;DHT22;8934;51.194;17.150;2022-11-27T05:48:34;4.90;99.90
17632;DHT22;8934;51.194;17.150;2022-11-27T05:51:21;4.90;99.90
17632;DHT22;8934;51.194;17.150;2022-11-27T05:54:09;4.90;99.90
17632;DHT22;8934;51.194;17.150;2022-11-27T05:56:56;4.90;99.90
17632;DHT22;8934;51.194;17.150;2022-11-27T05:59:43;4.90;99.90
17632;DHT22;8934;51.194;17.150;2022-11-27T06:02:31;4.90;99.90
17632;DHT22;8934;51.194;17.150;2022-11-27T06:05:18;4.90;99.90
17632;DHT22;8934;51.194;17.150;2022-11-27T06:08:05;4.90;99.90
17632;DHT22;8934;51.194;17.150;2022-11-27T06:10:54;4.90;99.90
17632;DHT22;8934;51.194;17.150;2022-11-27T06:13:41;5.00;99.90
17632;DHT22;8934;51.194;17.150;2022-11-27T06:16:28;5.00;99.90
17632;DHT22;8934;51.194;17.150;2022-11-27T06:19:15;5.00;99.90
17632;DHT22;8934;51.194;17.150;2022-11-27T06:22:02;5.00;99.90
17632;DHT22;8934;51.194;17.150;2022-11-27T06:24:49;5.00;99.90
17632;DHT22;8934;51.194;17.150;2022-11-27T06:27:38;5.00;99.90
17632;DHT22;8934;51.194;17.150;2022-11-27T06:30:25;5.00;99.90
17632;DHT22;8934;51.194;17.150;2022-11-27T06:33:12;4.90;99.90
17632;DHT22;8934;51.194;17.150;2022-11-27T06:35:59;4.90;99.90
17632;DHT22;8934;51.194;17.150;2022-11-27T06:38:46;5.00;99.90
17632;DHT22;8934;51.194;17.150;2022-11-27T06:41:33;5.00;99.90
17632;DHT22;8934;51.194;17.150;2022-11-27T06:44:22;4.90;99.90
17632;DHT22;8934;51.194;17.150;2022-11-27T06:47:09;4.90;99.90
17632;DHT22;8934;51.194;17.150;2022-11-27T06:49:56;4.90;99.90
17632;DHT22;8934;51.194;17.150;2022-11-27T06:52:43;4.90;99.90
17632;DHT22;8934;51.194;17.150;2022-11-27T06:55:31;4.90;99.90
17632;DHT22;8934;51.194;17.150;2022-11-27T06:58:18;5.00;99.90
17632;DHT22;8934;51.194;17.150;2022-11-27T07:01:08;5.00;99.90
17632;DHT22;8934;51.194;17.150;2022-11-27T07:03:56;5.00;99.90
17632;DHT22;8934;51.194;17.150;2022-11-27T07:06:43;5.00;99.90
17632;DHT22;8934;51.194;17.150;2022-11-27T07:09:30;5.00;99.90
17632;DHT22;8934;51.194;17.150;2022-11-27T07:12:17;5.10;99.90
17632;DHT22;8934;51.194;17.150;2022-11-27T07:15:06;5.10;99.90
17632;DHT22;8934;51.194;17.150;2022-11-27T07:17:54;5.10;99.90
17632;DHT22;8934;51.194;17.150;2022-11-27T07:20:41;5.20;99.90
17632;DHT22;8934;51.194;17.150;2022-11-27T07:23:28;5.20;99.90
17632;DHT22;8934;51.194;17.150;2022-11-27T07:26:18;5.20;99.90
17632;DHT22;8934;51.194;17.150;2022-11-27T07:29:05;5.20;99.90
17632;DHT22;8934;51.194;17.150;2022-11-27T07:31:52;5.20;99.90
17632;DHT22;8934;51.194;17.150;2022-11-27T07:34:41;5.30;99.90
17632;DHT22;8934;51.194;17.150;2022-11-27T07:37:29;5.40;99.90
17632;DHT22;8934;51.194;17.150;2022-11-27T07:40:17;5.40;99.90
17632;DHT22;8934;51.194;17.150;2022-11-27T07:43:04;5.40;99.90
17632;DHT22;8934;51.194;17.150;2022-11-27T07:45:51;5.50;99.90
17632;DHT22;8934;51.194;17.150;2022-11-27T07:48:38;5.50;99.90
17632;DHT22;8934;51.194;17.150;2022-11-27T07:51:27;5.50;99.90
17632;DHT22;8934;51.194;17.150;2022-11-27T07:54:14;5.60;99.90
17632;DHT22;8934;51.194;17.150;2022-11-27T07:57:01;5.60;99.90
17632;DHT22;8934;51.194;17.150;2022-11-27T07:59:48;5.60;99.90
17632;DHT22;8934;51.194;17.150;2022-11-27T08:02:35;5.70;99.90
17632;DHT22;8934;51.194;17.150;2022-11-27T08:05:23;5.70;99.90
17632;DHT22;8934;51.194;17.150;2022-11-27T08:08:11;5.70;99.90
17632;DHT22;8934;51.194;17.150;2022-11-27T08:10:58;5.70;99.90
17632;DHT22;8934;51.194;17.150;2022-11-27T08:13:45;5.80;99.90
17632;DHT22;8934;51.194;17.150;2022-11-27T08:16:33;5.80;99.90
17632;DHT22;8934;51.194;17.150;2022-11-27T08:19:21;5.90;99.90
17632;DHT22;8934;51.194;17.150;2022-11-27T08:22:10;5.90;99.90
17632;DHT22;8934;51.194;17.150;2022-11-27T08:24:59;6.00;99.90
17632;DHT22;8934;51.194;17.150;2022-11-27T08:27:46;6.10;99.90
17632;DHT22;8934;51.194;17.150;2022-11-27T08:30:33;6.20;99.90
17632;DHT22;8934;51.194;17.150;2022-11-27T08:33:20;6.20;99.90
17632;DHT22;8934;51.194;17.150;2022-11-27T08:36:08;6.20;99.90
17632;DHT22;8934;51.194;17.150;2022-11-27T08:39:02;6.20;99.90
17632;DHT22;8934;51.194;17.150;2022-11-27T08:41:51;6.30;99.90
17632;DHT22;8934;51.194;17.150;2022-11-27T08:44:38;6.30;99.90
17632;DHT22;8934;51.194;17.150;2022-11-27T08:47:26;6.30;99.90
17632;DHT22;8934;51.194;17.150;2022-11-27T08:50:13;6.40;99.90
17632;DHT22;8934;51.194;17.150;2022-11-27T08:53:00;6.50;99.90
17632;DHT22;8934;51.194;17.150;2022-11-27T08:55:47;6.60;99.90
17632;DHT22;8934;51.194;17.150;2022-11-27T08:58:36;6.60;99.90
17632;DHT22;8934;51.194;17.150;2022-11-27T09:01:27;6.60;99.90
17632;DHT22;8934;51.194;17.150;2022-11-27T09:04:14;6.70;99.90
17632;DHT22;8934;51.194;17.150;2022-11-27T09:07:01;6.70;99.90
17632;DHT22;8934;51.194;17.150;2022-11-27T09:09:48;6.70;99.90
17632;DHT22;8934;51.194;17.150;2022-11-27T09:12:36;6.70;99.90
17632;DHT22;8934;51.194;17.150;2022-11-27T09:15:29;6.70;99.90
17632;DHT22;8934;51.194;17.150;2022-11-27T09:18:16;6.70;99.90
17632;DHT22;8934;51.194;17.150;2022-11-27T09:21:05;6.70;99.90
17632;DHT22;8934;51.194;17.150;2022-11-27T09:23:54;6.80;99.90
17632;DHT22;8934;51.194;17.150;2022-11-27T09:26:41;6.80;99.90
17632;DHT22;8934;51.194;17.150;2022-11-27T09:29:29;6.70;99.90
17632;DHT22;8934;51.194;17.150;2022-11-27T09:32:17;6.80;99.90
17632;DHT22;8934;51.194;17.150;2022-11-27T09:35:05;6.80;99.90
17632;DHT22;8934;51.194;17.150;2022-11-27T09:37:52;6.80;99.90
17632;DHT22;8934;51.194;17.150;2022-11-27T09:40:43;6.80;99.90
17632;DHT22;8934;51.194;17.150;2022-11-27T09:43:33;6.80;99.90
17632;DHT22;8934;51.194;17.150;2022-11-27T09:46:25;6.80;99.90
17632;DHT22;8934;51.194;17.150;2022-11-27T09:49:22;6.70;99.90
17632;DHT22;8934;51.194;17.150;2022-11-27T09:52:14;6.70;99.90
17632;DHT22;8934;51.194;17.150;2022-11-27T09:55:12;6.70;99.90
17632;DHT22;8934;51.194;17.150;2022-11-27T09:58:04;6.70;99.90
17632;DHT22;8934;51.194;17.150;2022-11-27T10:00:52;6.70;99.90
17632;DHT22;8934;51.194;17.150;2022-11-27T10:03:41;6.70;99.90
17632;DHT22;8934;51.194;17.150;2022-11-27T10:06:33;6.80;99.90
17632;DHT22;8934;51.194;17.150;2022-11-27T10:09:30;6.80;99.90
17632;DHT22;8934;51.194;17.150;2022-11-27T10:12:25;6.80;99.90
17632;DHT22;8934;51.194;17.150;2022-11-27T10:15:19;6.80;99.90
17632;DHT22;8934;51.194;17.150;2022-11-27T10:18:19;6.80;99.90
17632;DHT22;8934;51.194;17.150;2022-11-27T10:21:13;6.80;99.90
17632;DHT22;8934;51.194;17.150;2022-11-27T10:24:06;6.90;99.90
17632;DHT22;8934;51.194;17.150;2022-11-27T10:27:00;6.90;99.90
17632;DHT22;8934;51.194;17.150;2022-11-27T10:29:51;6.90;99.90
17632;DHT22;8934;51.194;17.150;2022-11-27T10:32:39;6.90;99.90
17632;DHT22;8934;51.194;17.150;2022-11-27T10:35:43;6.90;99.90
17632;DHT22;8934;51.194;17.150;2022-11-27T10:38:35;7.00;99.90
17632;DHT22;8934;51.194;17.150;2022-11-27T10:41:33;7.00;99.90
17632;DHT22;8934;51.194;17.150;2022-11-27T10:44:38;7.20;99.90
17632;DHT22;8934;51.194;17.150;2022-11-27T10:47:27;7.30;99.90
17632;DHT22;8934;51.194;17.150;2022-11-27T10:50:19;7.40;99.90
17632;DHT22;8934;51.194;17.150;2022-11-27T10:53:08;7.30;99.90
17632;DHT22;8934;51.194;17.150;2022-11-27T10:59:36;7.20;99.90
17632;DHT22;8934;51.194;17.150;2022-11-27T11:02:27;7.10;99.90
17632;DHT22;8934;51.194;17.150;2022-11-27T11:05:22;7.00;99.90
17632;DHT22;8934;51.194;17.150;2022-11-27T11:08:30;7.00;99.90
17632;DHT22;8934;51.194;17.150;2022-11-27T11:11:25;7.00;99.90
17632;DHT22;8934;51.194;17.150;2022-11-27T11:14:16;7.00;99.90
17632;DHT22;8934;51.194;17.150;2022-11-27T11:17:15;7.00;99.90
17632;DHT22;8934;51.194;17.150;2022-11-27T11:20:17;7.10;99.90
17632;DHT22;8934;51.194;17.150;2022-11-27T11:23:06;7.10;99.90
17632;DHT22;8934;51.194;17.150;2022-11-27T11:25:56;7.20;99.90
17632;DHT22;8934;51.194;17.150;2022-11-27T11:28:48;7.20;99.90
17632;DHT22;8934;51.194;17.150;2022-11-27T11:31:37;7.30;99.90
17632;DHT22;8934;51.194;17.150;2022-11-27T11:34:28;7.30;99.90
17632;DHT22;8934;51.194;17.150;2022-11-27T11:37:20;7.40;99.90
17632;DHT22;8934;51.194;17.150;2022-11-27T11:40:20;7.40;99.90
17632;DHT22;8934;51.194;17.150;2022-11-27T11:43:22;7.50;99.90
17632;DHT22;8934;51.194;17.150;2022-11-27T11:46:17;7.60;99.90
17632;DHT22;8934;51.194;17.150;2022-11-27T11:49:13;7.70;99.90
17632;DHT22;8934;51.194;17.150;2022-11-27T11:52:11;7.90;99.90
17632;DHT22;8934;51.194;17.150;2022-11-27T11:55:13;7.90;99.90
17632;DHT22;8934;51.194;17.150;2022-11-27T11:58:20;7.90;99.90
17632;DHT22;8934;51.194;17.150;2022-11-27T12:01:21;7.90;99.90
17632;DHT22;8934;51.194;17.150;2022-11-27T12:07:38;7.90;99.90
17632;DHT22;8934;51.194;17.150;2022-11-27T12:10:46;7.90;99.90
17632;DHT22;8934;51.194;17.150;2022-11-27T12:13:57;8.00;99.90
17632;DHT22;8934;51.194;17.150;2022-11-27T12:16:56;8.10;99.90
17632;DHT22;8934;51.194;17.150;2022-11-27T12:20:00;8.00;99.90
17632;DHT22;8934;51.194;17.150;2022-11-27T12:26:08;7.90;99.90
17632;DHT22;8934;51.194;17.150;2022-11-27T12:29:21;7.80;99.90
17632;DHT22;8934;51.194;17.150;2022-11-27T12:32:31;7.80;99.90
17632;DHT22;8934;51.194;17.150;2022-11-27T12:35:30;7.80;99.90
17632;DHT22;8934;51.194;17.150;2022-11-27T12:38:43;7.80;99.90
17632;DHT22;8934;51.194;17.150;2022-11-27T12:41:46;7.80;99.90
17632;DHT22;8934;51.194;17.150;2022-11-27T12:44:44;7.80;99.90
17632;DHT22;8934;51.194;17.150;2022-11-27T12:47:38;7.80;99.90
17632;DHT22;8934;51.194;17.150;2022-11-27T12:50:31;7.70;99.90
17632;DHT22;8934;51.194;17.150;2022-11-27T12:53:23;7.80;99.90
17632;DHT22;8934;51.194;17.150;2022-11-27T12:56:17;7.70;99.90
17632;DHT22;8934;51.194;17.150;2022-11-27T12:59:12;7.70;99.90
17632;DHT22;8934;51.194;17.150;2022-11-27T13:02:09;7.70;99.90
17632;DHT22;8934;51.194;17.150;2022-11-27T13:05:03;7.60;99.90
17632;DHT22;8934;51.194;17.150;2022-11-27T13:07:54;7.50;99.90
17632;DHT22;8934;51.194;17.150;2022-11-27T13:10:48;7.50;99.90
17632;DHT22;8934;51.194;17.150;2022-11-27T13:13:41;7.40;99.90
17632;DHT22;8934;51.194;17.150;2022-11-27T13:16:32;7.40;99.90
17632;DHT22;8934;51.194;17.150;2022-11-27T13:19:23;7.40;99.90
17632;DHT22;8934;51.194;17.150;2022-11-27T13:22:16;7.30;99.90
17632;DHT22;8934;51.194;17.150;2022-11-27T13:25:09;7.30;99.90
17632;DHT22;8934;51.194;17.150;2022-11-27T13:27:59;7.30;99.90
17632;DHT22;8934;51.194;17.150;2022-11-27T13:30:51;7.20;99.90
17632;DHT22;8934;51.194;17.150;2022-11-27T13:33:42;7.20;99.90
17632;DHT22;8934;51.194;17.150;2022-11-27T13:36:34;7.20;99.90
17632;DHT22;8934;51.194;17.150;2022-11-27T13:39:26;7.10;99.90
17632;DHT22;8934;51.194;17.150;2022-11-27T13:42:17;7.10;99.90
17632;DHT22;8934;51.194;17.150;2022-11-27T13:45:07;7.10;99.90
17632;DHT22;8934;51.194;17.150;2022-11-27T13:47:59;7.10;99.90
17632;DHT22;8934;51.194;17.150;2022-11-27T13:50:52;7.10;99.90
17632;DHT22;8934;51.194;17.150;2022-11-27T13:53:41;7.00;99.90
17632;DHT22;8934;51.194;17.150;2022-11-27T13:56:29;7.00;99.90
17632;DHT22;8934;51.194;17.150;2022-11-27T13:59:18;7.00;99.90
17632;DHT22;8934;51.194;17.150;2022-11-27T14:02:07;7.00;99.90
17632;DHT22;8934;51.194;17.150;2022-11-27T14:04:55;7.00;99.90
17632;DHT22;8934;51.194;17.150;2022-11-27T14:07:45;6.90;99.90
17632;DHT22;8934;51.194;17.150;2022-11-27T14:10:33;6.90;99.90
17632;DHT22;8934;51.194;17.150;2022-11-27T14:13:21;6.90;99.90
17632;DHT22;8934;51.194;17.150;2022-11-27T14:16:23;6.80;99.90
17632;DHT22;8934;51.194;17.150;2022-11-27T14:19:28;6.80;99.90
17632;DHT22;8934;51.194;17.150;2022-11-27T14:22:31;6.70;99.90
17632;DHT22;8934;51.194;17.150;2022-11-27T14:25:22;6.70;99.90
17632;DHT22;8934;51.194;17.150;2022-11-27T14:28:14;6.70;99.90
17632;DHT22;8934;51.194;17.150;2022-11-27T14:31:03;6.60;99.90
17632;DHT22;8934;51.194;17.150;2022-11-27T14:33:50;6.60;99.90
17632;DHT22;8934;51.194;17.150;2022-11-27T14:36:57;6.50;99.90
17632;DHT22;8934;51.194;17.150;2022-11-27T14:39:46;6.40;99.90
17632;DHT22;8934;51.194;17.150;2022-11-27T14:42:34;6.40;99.90
17632;DHT22;8934;51.194;17.150;2022-11-27T14:45:24;6.30;99.90
17632;DHT22;8934;51.194;17.150;2022-11-27T14:48:17;6.30;99.90
17632;DHT22;8934;51.194;17.150;2022-11-27T14:51:05;6.20;99.90
17632;DHT22;8934;51.194;17.150;2022-11-27T14:53:57;6.20;99.90
17632;DHT22;8934;51.194;17.150;2022-11-27T14:56:45;6.20;99.90
17632;DHT22;8934;51.194;17.150;2022-11-27T14:59:33;6.10;99.90
17632;DHT22;8934;51.194;17.150;2022-11-27T15:02:25;6.10;99.90
17632;DHT22;8934;51.194;17.150;2022-11-27T15:05:17;6.10;99.90
17632;DHT22;8934;51.194;17.150;2022-11-27T15:08:08;6.00;99.90
17632;DHT22;8934;51.194;17.150;2022-11-27T15:10:57;5.90;99.90
17632;DHT22;8934;51.194;17.150;2022-11-27T15:13:52;5.90;99.90
17632;DHT22;8934;51.194;17.150;2022-11-27T15:16:44;5.80;99.90
17632;DHT22;8934;51.194;17.150;2022-11-27T15:19:34;5.80;99.90
17632;DHT22;8934;51.194;17.150;2022-11-27T15:22:23;5.80;99.90
17632;DHT22;8934;51.194;17.150;2022-11-27T15:25:35;5.80;99.90
17632;DHT22;8934;51.194;17.150;2022-11-27T15:28:27;5.70;99.90
17632;DHT22;8934;51.194;17.150;2022-11-27T15:31:28;5.70;99.90
17632;DHT22;8934;51.194;17.150;2022-11-27T15:34:21;5.60;99.90
17632;DHT22;8934;51.194;17.150;2022-11-27T15:37:20;5.60;99.90
17632;DHT22;8934;51.194;17.150;2022-11-27T15:40:23;5.50;99.90
17632;DHT22;8934;51.194;17.150;2022-11-27T15:43:12;5.50;99.90
17632;DHT22;8934;51.194;17.150;2022-11-27T15:46:04;5.50;99.90
17632;DHT22;8934;51.194;17.150;2022-11-27T15:48:54;5.40;99.90
17632;DHT22;8934;51.194;17.150;2022-11-27T15:51:41;5.40;99.90
17632;DHT22;8934;51.194;17.150;2022-11-27T15:54:29;5.40;99.90
17632;DHT22;8934;51.194;17.150;2022-11-27T15:57:16;5.40;99.90
17632;DHT22;8934;51.194;17.150;2022-11-27T16:00:04;5.40;99.90
17632;DHT22;8934;51.194;17.150;2022-11-27T16:02:57;5.40;99.90
17632;DHT22;8934;51.194;17.150;2022-11-27T16:05:46;5.30;99.90
17632;DHT22;8934;51.194;17.150;2022-11-27T16:08:34;5.40;99.90
17632;DHT22;8934;51.194;17.150;2022-11-27T16:11:22;5.40;99.90
17632;DHT22;8934;51.194;17.150;2022-11-27T16:14:09;5.30;99.90
17632;DHT22;8934;51.194;17.150;2022-11-27T16:16:56;5.30;99.90
17632;DHT22;8934;51.194;17.150;2022-11-27T16:19:45;5.30;99.90
17632;DHT22;8934;51.194;17.150;2022-11-27T16:22:34;5.30;99.90
17632;DHT22;8934;51.194;17.150;2022-11-27T16:25:21;5.30;99.90
17632;DHT22;8934;51.194;17.150;2022-11-27T16:28:09;5.30;99.90
17632;DHT22;8934;51.194;17.150;2022-11-27T16:30:58;5.30;99.90
17632;DHT22;8934;51.194;17.150;2022-11-27T16:33:45;5.20;99.90
17632;DHT22;8934;51.194;17.150;2022-11-27T16:36:33;5.10;99.90
17632;DHT22;8934;51.194;17.150;2022-11-27T16:39:22;5.10;99.90
17632;DHT22;8934;51.194;17.150;2022-11-27T16:42:09;5.10;99.90
17632;DHT22;8934;51.194;17.150;2022-11-27T16:44:56;5.00;99.90
17632;DHT22;8934;51.194;17.150;2022-11-27T16:47:44;5.00;99.90
17632;DHT22;8934;51.194;17.150;2022-11-27T16:50:31;5.00;99.90
17632;DHT22;8934;51.194;17.150;2022-11-27T16:53:18;4.90;99.90
17632;DHT22;8934;51.194;17.150;2022-11-27T16:56:08;4.90;99.90
17632;DHT22;8934;51.194;17.150;2022-11-27T16:58:56;4.90;99.90
17632;DHT22;8934;51.194;17.150;2022-11-27T17:01:48;4.80;99.90
17632;DHT22;8934;51.194;17.150;2022-11-27T17:04:36;4.80;99.90
17632;DHT22;8934;51.194;17.150;2022-11-27T17:07:24;4.70;99.90
17632;DHT22;8934;51.194;17.150;2022-11-27T17:10:11;4.70;99.90
17632;DHT22;8934;51.194;17.150;2022-11-27T17:13:00;4.70;99.90
17632;DHT22;8934;51.194;17.150;2022-11-27T17:15:47;4.60;99.90
17632;DHT22;8934;51.194;17.150;2022-11-27T17:18:35;4.60;99.90
17632;DHT22;8934;51.194;17.150;2022-11-27T17:21:26;4.50;99.90
17632;DHT22;8934;51.194;17.150;2022-11-27T17:24:15;4.50;99.90
17632;DHT22;8934;51.194;17.150;2022-11-27T17:27:03;4.40;99.90
17632;DHT22;8934;51.194;17.150;2022-11-27T17:29:52;4.40;99.90
17632;DHT22;8934;51.194;17.150;2022-11-27T17:32:39;4.30;99.90
17632;DHT22;8934;51.194;17.150;2022-11-27T17:35:26;4.30;99.90
17632;DHT22;8934;51.194;17.150;2022-11-27T17:38:15;4.20;99.90
17632;DHT22;8934;51.194;17.150;2022-11-27T17:41:03;4.20;99.90
17632;DHT22;8934;51.194;17.150;2022-11-27T17:43:51;4.20;99.90
17632;DHT22;8934;51.194;17.150;2022-11-27T17:46:40;4.20;99.90
17632;DHT22;8934;51.194;17.150;2022-11-27T17:49:30;4.20;99.90
17632;DHT22;8934;51.194;17.150;2022-11-27T17:52:18;4.20;99.90
17632;DHT22;8934;51.194;17.150;2022-11-27T17:55:05;4.10;99.90
17632;DHT22;8934;51.194;17.150;2022-11-27T17:57:53;4.10;99.90
17632;DHT22;8934;51.194;17.150;2022-11-27T18:00:41;4.20;99.90
17632;DHT22;8934;51.194;17.150;2022-11-27T18:03:31;4.20;99.90
17632;DHT22;8934;51.194;17.150;2022-11-27T18:06:19;4.20;99.90
17632;DHT22;8934;51.194;17.150;2022-11-27T18:09:08;4.20;99.90
17632;DHT22;8934;51.194;17.150;2022-11-27T18:11:56;4.30;99.90
17632;DHT22;8934;51.194;17.150;2022-11-27T18:14:43;4.30;99.90
17632;DHT22;8934;51.194;17.150;2022-11-27T18:17:29;4.30;99.90
17632;DHT22;8934;51.194;17.150;2022-11-27T18:20:18;4.30;99.90
17632;DHT22;8934;51.194;17.150;2022-11-27T18:23:05;4.40;99.90